createdAt,value
2023-03-03T00:03:18.783Z,89.30
2023-03-03T00:06:27.814Z,89.27
2023-03-03T00:09:36.077Z,88.44
2023-03-03T00:12:50.990Z,88.50
2023-03-03T00:16:16.978Z,88.87
2023-03-03T00:19:26.488Z,88.04
2023-03-03T00:22:40.216Z,88.81
2023-03-03T00:25:53.273Z,88.40
2023-03-03T00:29:02.069Z,88.50
2023-03-03T00:32:25.474Z,88.67
2023-03-03T00:35:37.091Z,88.77
2023-03-03T00:38:45.287Z,87.77
2023-03-03T00:41:53.791Z,87.88
2023-03-03T00:45:02.616Z,88.26
2023-03-03T00:48:29.314Z,88.56
2023-03-03T00:51:39.393Z,87.84
2023-03-03T00:54:48.520Z,88.20
2023-03-03T00:57:56.985Z,88.78
2023-03-03T01:01:11.168Z,87.88
2023-03-03T01:04:26.004Z,88.74
2023-03-03T01:07:35.876Z,87.02
2023-03-03T01:10:50.962Z,87.73
2023-03-03T01:13:59.326Z,87.71
2023-03-03T01:17:09.985Z,87.57
2023-03-03T01:20:18.797Z,88.38
2023-03-03T01:23:28.577Z,87.80
2023-03-03T01:26:36.898Z,87.88
2023-03-03T01:29:45.943Z,88.37
2023-03-03T01:32:54.927Z,87.05
2023-03-03T01:36:03.918Z,87.36
2023-03-03T01:39:13.543Z,87.86
2023-03-03T01:42:23.015Z,88.40
2023-03-03T01:45:33.475Z,87.80
2023-03-03T01:48:45.828Z,87.43
2023-03-03T01:51:59.538Z,87.78
2023-03-03T01:55:18.651Z,87.48
2023-03-03T01:58:32.581Z,87.77
2023-03-03T02:01:42.512Z,88.58
2023-03-03T02:04:51.642Z,88.35
2023-03-03T02:08:00.264Z,88.66
2023-03-03T02:11:13.459Z,88.41
2023-03-03T02:14:21.674Z,88.78
2023-03-03T02:17:30.161Z,88.79
2023-03-03T02:20:57.808Z,88.46
2023-03-03T02:24:17.690Z,88.73
2023-03-03T02:27:32.505Z,87.42
2023-03-03T02:30:41.524Z,88.28
2023-03-03T02:33:54.124Z,87.97
2023-03-03T02:37:04.842Z,87.93
2023-03-03T02:40:15.874Z,87.23
2023-03-03T02:43:30.996Z,88.38
2023-03-03T02:46:43.602Z,88.07
2023-03-03T02:49:51.957Z,87.67
2023-03-03T02:53:00.095Z,87.76
2023-03-03T02:56:10.125Z,87.82
2023-03-03T02:59:20.735Z,87.35
2023-03-03T03:02:31.075Z,87.19
2023-03-03T03:05:39.865Z,87.20
2023-03-03T03:08:48.121Z,87.46
2023-03-03T03:11:56.423Z,86.72
2023-03-03T03:15:10.404Z,86.97
2023-03-03T03:18:19.088Z,87.16
2023-03-03T03:21:28.180Z,86.84
2023-03-03T03:24:36.817Z,87.75
2023-03-03T03:27:48.877Z,88.15
2023-03-03T03:30:58.779Z,87.52
2023-03-03T03:34:07.528Z,87.44
2023-03-03T03:37:15.737Z,87.66
2023-03-03T03:40:26.724Z,87.43
2023-03-03T03:43:35.766Z,88.02
2023-03-03T03:46:45.928Z,88.00
2023-03-03T03:49:54.289Z,87.34
2023-03-03T03:53:02.698Z,87.32
2023-03-03T03:56:12.204Z,87.42
2023-03-03T03:59:25.274Z,87.34
2023-03-03T04:02:35.887Z,86.91
2023-03-03T04:05:44.790Z,87.55
2023-03-03T04:08:53.758Z,87.69
2023-03-03T04:12:04.543Z,87.25
2023-03-03T04:15:15.579Z,87.75
2023-03-03T04:18:25.798Z,87.49
2023-03-03T04:21:34.083Z,85.49
2023-03-03T04:24:43.760Z,86.46
2023-03-03T04:27:52.829Z,86.08
2023-03-03T04:31:03.272Z,86.64
2023-03-03T04:34:14.829Z,86.74
2023-03-03T04:37:24.337Z,85.59
2023-03-03T04:40:32.730Z,85.40
2023-03-03T04:43:42.987Z,85.82
2023-03-03T04:46:53.714Z,84.69
2023-03-03T04:50:03.500Z,86.12
2023-03-03T04:53:13.846Z,84.47
2023-03-03T04:56:23.616Z,85.13
2023-03-03T04:59:33.372Z,85.68
2023-03-03T05:02:42.465Z,86.25
2023-03-03T05:05:52.174Z,86.84
2023-03-03T05:09:00.303Z,85.35
2023-03-03T05:12:09.175Z,85.46
2023-03-03T05:15:17.506Z,85.95
2023-03-03T05:18:27.673Z,84.72
2023-03-03T05:21:37.974Z,85.63
2023-03-03T05:24:49.487Z,86.05
2023-03-03T05:27:57.613Z,86.73
2023-03-03T05:31:06.296Z,86.64
2023-03-03T05:34:14.535Z,86.65
2023-03-03T05:37:24.455Z,85.94
2023-03-03T05:40:32.663Z,85.52
2023-03-03T05:43:41.095Z,85.91
2023-03-03T05:46:49.477Z,85.32
2023-03-03T05:49:57.622Z,85.69
2023-03-03T05:53:07.078Z,86.41
2023-03-03T05:56:15.229Z,85.96
2023-03-03T05:59:23.323Z,85.58
2023-03-03T06:02:31.653Z,85.35
2023-03-03T06:05:40.842Z,85.92
2023-03-03T06:08:50.514Z,85.12
2023-03-03T06:11:58.678Z,84.60
2023-03-03T06:15:09.048Z,84.73
2023-03-03T06:18:17.240Z,84.77
2023-03-03T06:21:25.440Z,85.24
2023-03-03T06:24:35.530Z,86.10
2023-03-03T06:27:43.674Z,85.30
2023-03-03T06:30:55.297Z,85.20
2023-03-03T06:34:03.537Z,84.91
2023-03-03T06:37:12.034Z,85.12
2023-03-03T06:40:21.710Z,84.77
2023-03-03T06:43:29.773Z,85.02
2023-03-03T06:46:37.898Z,84.67
2023-03-03T06:49:46.242Z,85.08
2023-03-03T06:53:08.655Z,85.83
2023-03-03T06:56:19.372Z,85.90
2023-03-03T06:59:29.174Z,86.15
2023-03-03T07:02:37.519Z,86.24
2023-03-03T07:05:46.421Z,85.41
2023-03-03T07:08:57.667Z,84.81
2023-03-03T07:15:49.403Z,84.49
2023-03-03T07:19:03.578Z,84.57
2023-03-03T07:22:19.806Z,83.90
2023-03-03T07:25:35.697Z,83.47
2023-03-03T07:28:55.316Z,83.71
2023-03-03T07:32:23.087Z,83.34
2023-03-03T07:35:40.004Z,83.76
2023-03-03T07:38:55.398Z,83.10
2023-03-03T07:42:28.867Z,82.77
2023-03-03T07:45:48.631Z,83.51
2023-03-03T07:49:01.065Z,82.70
2023-03-03T07:52:28.265Z,81.75
2023-03-03T07:55:40.417Z,81.63
2023-03-03T07:58:49.130Z,82.56
2023-03-03T08:02:00.577Z,82.14
2023-03-03T08:05:35.771Z,82.20
2023-03-03T08:08:45.655Z,82.50
2023-03-03T08:12:00.729Z,80.92
2023-03-03T08:15:24.449Z,81.18
2023-03-03T08:18:38.659Z,80.42
2023-03-03T08:21:48.252Z,80.72
2023-03-03T08:24:58.427Z,79.33
2023-03-03T08:28:09.151Z,80.00
2023-03-03T08:31:34.339Z,78.68
2023-03-03T08:34:46.837Z,78.97
2023-03-03T08:37:56.330Z,79.24
2023-03-03T08:41:06.415Z,77.91
2023-03-03T08:44:14.681Z,78.30
2023-03-03T08:47:23.189Z,76.95
2023-03-03T08:50:32.070Z,76.66
2023-03-03T08:53:41.777Z,76.91
2023-03-03T08:56:50.100Z,75.54
2023-03-03T08:59:58.305Z,75.51
2023-03-03T09:03:07.137Z,74.52
2023-03-03T09:06:15.399Z,74.60
2023-03-03T09:09:25.403Z,74.75
2023-03-03T09:12:37.421Z,74.02
2023-03-03T09:15:47.150Z,74.52
2023-03-03T09:18:55.523Z,75.57
2023-03-03T09:22:21.631Z,76.41
2023-03-03T09:25:37.854Z,75.85
2023-03-03T09:28:46.119Z,75.04
2023-03-03T09:31:57.474Z,73.91
2023-03-03T09:35:37.892Z,72.28
2023-03-03T09:38:48.643Z,72.32
2023-03-03T09:42:29.072Z,72.30
2023-03-03T09:46:03.344Z,71.22
2023-03-03T09:49:29.078Z,72.20
2023-03-03T09:52:53.699Z,70.60
2023-03-03T09:56:13.270Z,71.01
2023-03-03T09:59:45.362Z,69.05
2023-03-03T10:03:27.309Z,70.33
2023-03-03T10:06:46.807Z,72.97
2023-03-03T10:10:26.960Z,73.06
2023-03-03T10:14:06.700Z,73.77
2023-03-03T10:17:46.706Z,74.17
2023-03-03T10:21:06.330Z,72.87
2023-03-03T10:24:29.598Z,70.71
2023-03-03T10:27:57.851Z,71.31
2023-03-03T10:31:20.049Z,70.83
2023-03-03T10:35:03.446Z,71.48
2023-03-03T10:38:45.055Z,72.15
2023-03-03T10:42:21.043Z,72.57
2023-03-03T10:46:12.916Z,72.50
2023-03-03T10:49:39.252Z,72.57
2023-03-03T10:52:55.701Z,71.85
2023-03-03T10:56:28.553Z,71.01
2023-03-03T11:00:00.989Z,70.71
2023-03-03T11:03:45.561Z,71.16
2023-03-03T11:07:06.046Z,70.19
2023-03-03T11:10:46.800Z,71.64
2023-03-03T11:14:09.100Z,71.58
2023-03-03T11:17:30.866Z,70.88
2023-03-03T11:20:52.631Z,70.94
2023-03-03T11:24:20.328Z,70.50
2023-03-03T11:28:01.763Z,72.47
2023-03-03T11:31:21.503Z,72.19
2023-03-03T11:34:54.686Z,72.67
2023-03-03T11:38:24.156Z,72.89
2023-03-03T11:41:40.849Z,72.14
2023-03-03T11:44:56.321Z,70.52
2023-03-03T11:48:18.077Z,69.64
2023-03-03T11:51:42.127Z,71.56
2023-03-03T11:54:57.993Z,71.02
2023-03-03T11:58:17.757Z,70.76
2023-03-03T12:01:37.418Z,69.94
2023-03-03T12:04:52.000Z,69.47
2023-03-03T12:08:11.598Z,68.15
2023-03-03T12:11:27.764Z,66.02
2023-03-03T12:15:05.759Z,62.02
2023-03-03T12:18:44.763Z,60.66
2023-03-03T12:22:18.553Z,63.74
2023-03-03T12:25:39.112Z,62.46
2023-03-03T12:28:56.236Z,63.37
2023-03-03T12:32:23.480Z,60.99
2023-03-03T12:35:42.773Z,63.51
2023-03-03T12:39:01.455Z,65.58
2023-03-03T12:42:30.175Z,65.69
2023-03-03T12:45:53.607Z,65.28
2023-03-03T12:49:03.563Z,65.03
2023-03-03T12:52:29.264Z,63.61
2023-03-03T12:55:52.980Z,61.55
2023-03-03T12:59:09.437Z,62.84
2023-03-03T13:02:43.378Z,61.63
2023-03-03T13:06:05.565Z,62.35
2023-03-03T13:09:30.374Z,61.26
2023-03-03T13:12:47.915Z,60.02
2023-03-03T13:16:07.428Z,62.25
2023-03-03T13:19:24.136Z,61.70
2023-03-03T13:22:51.353Z,61.56
2023-03-03T13:26:08.073Z,63.05
2023-03-03T13:29:25.238Z,61.37
2023-03-03T13:32:44.270Z,62.16
2023-03-03T13:35:58.001Z,60.84
2023-03-03T13:39:21.449Z,62.08
2023-03-03T13:42:40.762Z,62.14
2023-03-03T13:46:09.429Z,59.75
2023-03-03T13:49:47.688Z,59.59
2023-03-03T13:53:27.538Z,60.69
2023-03-03T13:57:11.765Z,61.87
2023-03-03T14:00:46.301Z,63.44
2023-03-03T14:04:07.162Z,65.23
2023-03-03T14:07:27.488Z,66.42
2023-03-03T14:10:45.344Z,66.08
2023-03-03T14:14:10.095Z,66.18
2023-03-03T14:17:34.617Z,65.67
2023-03-03T14:20:48.530Z,66.48
2023-03-03T14:24:06.598Z,64.68
2023-03-03T14:27:27.644Z,64.45
2023-03-03T14:30:40.561Z,64.60
2023-03-03T14:34:02.746Z,64.84
2023-03-03T14:37:25.406Z,66.00
2023-03-03T14:40:35.837Z,65.47
2023-03-03T14:43:46.957Z,66.29
2023-03-03T14:47:23.981Z,66.53
2023-03-03T14:50:39.369Z,65.42
2023-03-03T14:53:51.229Z,64.71
2023-03-03T14:57:13.365Z,64.95
2023-03-03T15:00:36.436Z,63.60
2023-03-03T15:03:59.688Z,63.73
2023-03-03T15:07:32.808Z,65.04
2023-03-03T15:10:44.355Z,64.29
2023-03-03T15:13:53.007Z,63.81
2023-03-03T15:17:26.194Z,63.57
2023-03-03T15:20:45.272Z,62.91
2023-03-03T15:24:04.605Z,64.11
2023-03-03T15:27:22.329Z,63.23
2023-03-03T15:30:38.491Z,64.14
2023-03-03T15:34:02.994Z,63.87
2023-03-03T15:37:34.212Z,62.96
2023-03-03T15:40:50.465Z,63.39
2023-03-03T15:44:15.772Z,63.93
2023-03-03T15:47:46.905Z,63.36
2023-03-03T15:51:07.945Z,63.15
2023-03-03T15:54:44.741Z,63.90
2023-03-03T15:58:11.368Z,64.19
2023-03-03T16:01:28.137Z,64.62
2023-03-03T16:04:45.041Z,64.93
2023-03-03T16:08:13.527Z,63.99
2023-03-03T16:11:31.231Z,65.87
2023-03-03T16:15:10.767Z,66.46
2023-03-03T16:18:34.169Z,66.89
2023-03-03T16:22:08.950Z,67.23
2023-03-03T16:25:49.238Z,68.05
2023-03-03T16:29:32.676Z,68.58
2023-03-03T16:32:49.637Z,68.83
2023-03-03T16:36:09.023Z,68.86
2023-03-03T16:39:27.466Z,69.78
2023-03-03T16:42:35.812Z,70.05
2023-03-03T16:45:46.074Z,70.16
2023-03-03T16:49:09.719Z,70.19
2023-03-03T16:52:26.767Z,70.65
2023-03-03T16:55:46.644Z,71.80
2023-03-03T16:59:19.092Z,71.02
2023-03-03T17:02:53.983Z,71.33
2023-03-03T17:06:12.233Z,71.75
2023-03-03T17:09:50.867Z,72.46
2023-03-03T17:13:30.320Z,72.94
2023-03-03T17:16:55.541Z,73.66
2023-03-03T17:20:31.145Z,74.29
2023-03-03T17:24:07.299Z,74.39
2023-03-03T17:27:28.958Z,74.84
2023-03-03T17:30:46.644Z,75.08
2023-03-03T17:34:24.393Z,75.95
2023-03-03T17:37:47.614Z,76.06
2023-03-03T17:41:07.679Z,76.15
2023-03-03T17:44:29.347Z,76.87
2023-03-03T17:48:09.215Z,77.03
2023-03-03T17:51:58.558Z,76.96
2023-03-03T17:55:40.492Z,78.40
2023-03-03T17:59:24.875Z,78.74
2023-03-03T18:03:12.914Z,79.13
2023-03-03T18:06:50.425Z,79.71
2023-03-03T18:10:36.793Z,80.02
2023-03-03T18:14:20.397Z,80.60
2023-03-03T18:18:03.026Z,80.75
2023-03-03T18:21:17.320Z,81.14
2023-03-03T18:24:38.677Z,81.26
2023-03-03T18:28:10.066Z,82.49
2023-03-03T18:31:27.086Z,81.97
2023-03-03T18:34:39.649Z,82.56
2023-03-03T18:37:49.208Z,82.54
2023-03-03T18:41:01.801Z,82.99
2023-03-03T18:44:30.114Z,83.36
2023-03-03T18:48:06.429Z,83.57
2023-03-03T18:51:50.228Z,83.61
2023-03-03T18:55:26.237Z,84.25
2023-03-03T18:58:38.646Z,84.54
2023-03-03T19:01:51.730Z,83.86
2023-03-03T19:05:19.672Z,84.30
2023-03-03T19:08:44.529Z,84.30
2023-03-03T19:11:55.411Z,85.12
2023-03-03T19:15:11.067Z,85.11
2023-03-03T19:18:27.753Z,85.50
2023-03-03T19:21:38.555Z,84.94
2023-03-03T19:25:15.205Z,84.30
2023-03-03T19:28:39.715Z,85.04
2023-03-03T19:31:59.941Z,85.44
2023-03-03T19:35:29.657Z,85.02
2023-03-03T19:38:52.902Z,84.81
2023-03-03T19:42:14.751Z,84.56
2023-03-03T19:45:54.041Z,84.94
2023-03-03T19:49:20.929Z,84.83
2023-03-03T19:52:41.146Z,84.89
2023-03-03T19:56:14.893Z,84.89
2023-03-03T19:59:37.209Z,85.22
2023-03-03T20:03:17.905Z,85.81
2023-03-03T20:06:47.047Z,87.18
2023-03-03T20:10:14.707Z,85.77
2023-03-03T20:13:45.757Z,86.55
2023-03-03T20:17:13.270Z,85.67
2023-03-03T20:21:09.543Z,85.88
2023-03-03T20:24:51.117Z,86.28
2023-03-03T20:28:21.850Z,85.35
2023-03-03T20:31:44.191Z,85.75
2023-03-03T20:35:07.952Z,85.87
2023-03-03T20:38:28.630Z,86.13
2023-03-03T20:41:58.744Z,86.13
2023-03-03T20:45:28.546Z,86.05
2023-03-03T20:49:14.156Z,87.39
2023-03-03T20:52:35.140Z,86.49
2023-03-03T20:55:59.088Z,88.92
2023-03-03T20:59:22.640Z,88.58
2023-03-03T21:02:40.283Z,87.49
2023-03-03T21:06:00.696Z,87.46
2023-03-03T21:09:09.066Z,87.54
2023-03-03T21:12:30.526Z,86.63
2023-03-03T21:15:39.675Z,87.45
2023-03-03T21:18:59.710Z,88.50
2023-03-03T21:22:11.495Z,87.97
2023-03-03T21:25:52.773Z,87.84
2023-03-03T21:29:03.698Z,89.09
2023-03-03T21:32:36.482Z,88.60
2023-03-03T21:36:02.000Z,87.53
2023-03-03T21:39:28.553Z,86.15
2023-03-03T21:42:44.260Z,87.10
2023-03-03T21:45:52.375Z,86.71
2023-03-03T21:49:00.519Z,87.92
2023-03-03T21:52:10.039Z,88.48
2023-03-03T21:55:18.399Z,88.83
2023-03-03T21:58:26.487Z,88.35
2023-03-03T22:01:37.736Z,88.59
2023-03-03T22:04:46.336Z,89.47
2023-03-03T22:07:56.082Z,88.78
2023-03-03T22:11:05.532Z,88.16
2023-03-03T22:14:13.957Z,86.48
2023-03-03T22:17:25.481Z,87.27
2023-03-03T22:20:33.603Z,86.87
2023-03-03T22:23:43.104Z,86.68
2023-03-03T22:26:51.578Z,87.24
2023-03-03T22:29:59.975Z,87.69
2023-03-03T22:33:08.236Z,88.20
2023-03-03T22:36:16.948Z,87.33
2023-03-03T22:39:26.544Z,87.04
2023-03-03T22:42:34.906Z,87.83
2023-03-03T22:45:44.732Z,87.44
2023-03-03T22:48:52.866Z,87.41
2023-03-03T22:52:02.654Z,87.83
2023-03-03T22:55:12.945Z,87.10
2023-03-03T22:58:25.415Z,87.02
2023-03-03T23:01:33.796Z,87.84
2023-03-03T23:04:42.158Z,86.91
2023-03-03T23:07:50.527Z,87.68
2023-03-03T23:11:00.213Z,87.44
2023-03-03T23:14:08.364Z,87.16
2023-03-03T23:17:16.520Z,87.93
2023-03-03T23:20:28.723Z,87.98
2023-03-03T23:23:37.096Z,87.83
2023-03-03T23:26:46.682Z,86.87
2023-03-03T23:29:55.695Z,87.61
2023-03-03T23:33:04.042Z,87.51
2023-03-03T23:36:12.483Z,87.31
2023-03-03T23:39:21.026Z,86.61
2023-03-03T23:42:30.921Z,87.51
2023-03-03T23:45:39.271Z,87.53
2023-03-03T23:48:47.492Z,87.17
2023-03-03T23:51:55.856Z,87.10
2023-03-03T23:55:05.332Z,87.42
2023-03-03T23:58:14.773Z,87.58
